Time;durP1;ratioP1;P1;durP2;ratioP2;P2;SDS_P1;SDS_P2;PMS_P1;PMS_P2;Temp;Humidity;BMP_temperature;BMP_pressure;BME280_temperature;BME280_humidity;BME280_pressure;Samples;Min_cycle;Max_cycle;Signal;HPM_P1;HPM_P2
2022/09/20 00:01:22;;;;;;;5.70;3.00;;;;;;;11.57;68.09;100088.84;1762304;80;21030;-46
2022/09/20 00:03:51;;;;;;;6.03;2.58;;;;;;;11.56;68.05;100095.06;1782070;78;21034;-47
2022/09/20 00:06:21;;;;;;;6.03;3.05;;;;;;;11.59;68.17;100088.21;1774334;78;21169;-46
2022/09/20 00:08:48;;;;;;;6.72;2.60;;;;;;;11.63;68.27;100092.72;1781142;78;21105;-47
2022/09/20 00:11:24;;;;;;;6.62;3.20;;;;;;;11.61;68.33;100095.98;1763258;79;21134;-47
2022/09/20 00:13:54;;;;;;;5.78;2.87;;;;;;;11.57;68.42;100094.11;1752556;79;21050;-48
2022/09/20 00:16:25;;;;;;;10.23;3.25;;;;;;;11.50;68.56;100098.27;1766944;79;21585;-47
2022/09/20 00:18:53;;;;;;;7.22;3.83;;;;;;;11.43;68.81;100090.53;1764294;79;21047;-48
2022/09/20 00:21:24;;;;;;;6.70;3.08;;;;;;;11.40;68.96;100099.55;1760749;79;21576;-47
2022/09/20 00:23:51;;;;;;;7.40;3.08;;;;;;;11.42;68.92;100100.73;1768572;79;21196;-47
2022/09/20 00:26:18;;;;;;;7.00;3.12;;;;;;;11.40;68.93;100095.60;1773525;79;21050;-47
2022/09/20 00:28:45;;;;;;;6.67;2.87;;;;;;;11.36;69.11;100098.64;1767542;79;21050;-48
2022/09/20 00:31:13;;;;;;;5.62;2.75;;;;;;;11.31;69.32;100093.30;1759071;79;20999;-47
2022/09/20 00:36:26;;;;;;;7.03;3.22;;;;;;;11.20;69.58;100090.77;1776679;79;21160;-47
2022/09/20 00:39:01;;;;;;;6.55;2.85;;;;;;;11.16;69.73;100088.03;1765648;79;21047;-46
2022/09/20 00:41:28;;;;;;;7.07;3.00;;;;;;;11.18;69.71;100090.53;1766731;79;21529;-47
2022/09/20 00:43:55;;;;;;;6.85;3.17;;;;;;;11.19;69.79;100089.09;1762971;79;21062;-47
2022/09/20 00:46:37;;;;;;;7.03;3.35;;;;;;;11.14;69.91;100093.43;1776908;79;21035;-46
2022/09/20 00:49:14;;;;;;;8.18;3.30;;;;;;;11.09;70.21;100094.80;1771055;79;21137;-47
2022/09/20 00:51:44;;;;;;;7.30;3.22;;;;;;;11.01;70.45;100095.95;1768278;79;21081;-47
2022/09/20 00:54:11;;;;;;;7.35;3.08;;;;;;;10.96;70.58;100098.97;1764917;79;21026;-47
2022/09/20 00:56:40;;;;;;;5.70;3.25;;;;;;;10.95;70.72;100100.78;1756366;79;21050;-47
2022/09/20 00:59:33;;;;;;;5.67;2.90;;;;;;;10.96;70.71;100099.83;1758801;79;21078;-47
2022/09/20 01:02:14;;;;;;;7.25;3.60;;;;;;;10.93;70.83;100098.77;1768180;79;21109;-47
2022/09/20 01:04:41;;;;;;;6.97;3.15;;;;;;;10.90;70.89;100101.66;1767088;79;21525;-46
2022/09/20 01:07:09;;;;;;;6.55;3.52;;;;;;;10.89;70.79;100098.70;1772318;79;21064;-47
2022/09/20 01:09:37;;;;;;;6.80;3.17;;;;;;;10.87;70.75;100086.62;1759207;79;21473;-47
2022/09/20 01:12:08;;;;;;;5.87;2.95;;;;;;;10.88;70.32;100090.44;1770631;79;21501;-47
2022/09/20 01:14:34;;;;;;;5.45;2.90;;;;;;;10.91;69.98;100087.55;1764458;79;21098;-46
2022/09/20 01:17:03;;;;;;;6.83;3.22;;;;;;;10.96;69.83;100087.98;1768858;79;21086;-46
2022/09/20 01:19:57;;;;;;;8.30;3.10;;;;;;;10.96;69.59;100079.23;1763138;79;21341;-47
2022/09/20 01:22:34;;;;;;;8.58;3.27;;;;;;;10.95;69.46;100079.72;1755328;79;21066;-47
2022/09/20 01:25:15;;;;;;;5.67;3.10;;;;;;;10.92;69.24;100078.66;1719231;80;21093;-47
2022/09/20 01:27:45;;;;;;;6.70;2.98;;;;;;;10.88;69.11;100087.80;1762103;79;21284;-46
2022/09/20 01:30:25;;;;;;;7.50;3.60;;;;;;;10.87;69.13;100085.30;1767003;79;21045;-48
2022/09/20 01:33:27;;;;;;;9.20;3.67;;;;;;;10.94;69.14;100085.97;1774702;79;21099;-47
2022/09/20 01:35:57;;;;;;;7.22;3.60;;;;;;;10.99;69.10;100092.63;1758460;79;21162;-47
2022/09/20 01:38:59;;;;;;;6.28;3.08;;;;;;;10.99;69.15;100086.05;1754951;79;21097;-48
2022/09/20 01:41:43;;;;;;;6.97;3.45;;;;;;;10.96;69.22;100080.08;1762829;79;21087;-46
2022/09/20 01:44:31;;;;;;;7.75;3.72;;;;;;;10.93;69.23;100074.26;1765248;79;21056;-47
2022/09/20 01:47:12;;;;;;;6.42;3.37;;;;;;;10.89;69.02;100071.52;1768863;79;21553;-47
2022/09/20 01:50:11;;;;;;;7.05;3.42;;;;;;;10.91;69.10;100069.12;1771794;79;21049;-47
2022/09/20 01:52:43;;;;;;;8.48;3.70;;;;;;;11.01;68.93;100070.48;1772588;79;21114;-47
2022/09/20 01:55:33;;;;;;;6.83;3.12;;;;;;;11.10;68.64;100070.16;1757337;80;21139;-47
2022/09/20 01:58:32;;;;;;;6.25;3.58;;;;;;;11.11;68.87;100067.85;1682687;83;21129;-47
2022/09/20 02:01:20;;;;;;;9.90;3.65;;;;;;;11.12;69.31;100072.16;1822240;76;20987;-47
2022/09/20 02:03:58;;;;;;;6.67;3.20;;;;;;;11.06;69.50;100076.17;1829728;76;21588;-47
2022/09/20 02:06:48;;;;;;;7.47;4.05;;;;;;;11.05;69.95;100083.71;1837432;77;21472;-46
2022/09/20 02:23:35;;;;;;;8.35;3.87;;;;;;;11.92;68.84;100081.39;1755734;78;22100;-46
2022/09/20 02:26:34;;;;;;;8.25;4.00;;;;;;;11.98;68.58;100082.98;1743971;79;21093;-47
2022/09/20 02:29:20;;;;;;;12.35;4.00;;;;;;;11.96;68.69;100087.57;1742960;79;21144;-48
2022/09/20 02:32:26;;;;;;;10.25;4.33;;;;;;;11.87;68.82;100087.07;1773149;79;20995;-47
2022/09/20 02:35:31;;;;;;;6.80;3.58;;;;;;;11.73;69.16;100086.14;1748681;79;21197;-47
2022/09/20 02:38:15;;;;;;;6.97;3.35;;;;;;;11.59;69.66;100084.75;1744188;80;21102;-48
2022/09/20 02:41:02;;;;;;;7.78;3.58;;;;;;;11.49;70.08;100088.68;1759738;79;21055;-46
2022/09/20 02:43:49;;;;;;;9.98;4.08;;;;;;;11.45;70.35;100089.94;1754774;79;21223;-48
2022/09/20 02:46:27;;;;;;;10.53;3.77;;;;;;;11.36;70.57;100082.34;1785644;79;21047;-48
2022/09/20 02:49:06;;;;;;;6.92;4.03;;;;;;;11.27;71.05;100076.08;1756033;80;21093;-48
2022/09/20 02:52:03;;;;;;;7.85;3.72;;;;;;;11.20;71.26;100079.41;1751283;80;21145;-48
2022/09/20 02:54:53;;;;;;;6.53;3.27;;;;;;;11.11;71.36;100084.50;1735565;80;21128;-47
2022/09/20 02:57:34;;;;;;;9.80;4.20;;;;;;;11.08;71.49;100076.05;1757016;79;21209;-48
2022/09/20 03:00:08;;;;;;;5.80;3.30;;;;;;;11.09;71.48;100080.33;1731080;80;21691;-48
2022/09/20 03:03:18;;;;;;;6.00;3.25;;;;;;;11.05;71.73;100079.77;1700185;80;21149;-48
2022/09/20 03:06:03;;;;;;;7.22;3.50;;;;;;;11.03;72.02;100080.39;1748902;80;21138;-48
2022/09/20 03:09:03;;;;;;;9.18;3.67;;;;;;;11.00;72.06;100085.09;1744260;79;21079;-47
2022/09/20 03:11:50;;;;;;;5.80;3.20;;;;;;;10.95;72.17;100082.84;1753325;80;21158;-64
2022/09/20 03:14:24;;;;;;;6.42;3.67;;;;;;;10.92;72.17;100088.37;1754533;80;21004;-62
2022/09/20 03:17:25;;;;;;;8.30;3.70;;;;;;;10.93;72.12;100090.88;1739722;80;21066;-62
2022/09/20 03:20:09;;;;;;;8.55;3.52;;;;;;;10.92;72.25;100095.78;1747746;80;21595;-62
2022/09/20 03:23:07;;;;;;;8.03;3.70;;;;;;;10.88;72.43;100096.20;1738897;80;21062;-64
2022/09/20 03:25:51;;;;;;;6.47;3.47;;;;;;;10.81;72.56;100098.52;1745876;80;21744;-64
2022/09/20 03:28:35;;;;;;;6.12;3.47;;;;;;;10.74;72.85;100096.03;1748931;80;21009;-62
2022/09/20 03:31:37;;;;;;;7.62;3.83;;;;;;;10.75;72.91;100103.80;1734997;80;21215;-63
2022/09/20 03:34:26;;;;;;;7.15;3.62;;;;;;;10.82;72.85;100105.92;1746977;80;21171;-63
2022/09/20 03:37:17;;;;;;;5.85;3.40;;;;;;;10.83;72.85;100109.74;1744370;79;21463;-64
2022/09/20 03:40:26;;;;;;;7.55;4.05;;;;;;;10.82;73.09;100111.19;1750085;80;21132;-63
2022/09/20 03:42:53;;;;;;;6.25;3.27;;;;;;;10.82;73.30;100106.75;1741114;80;21046;-63
2022/09/20 03:45:46;;;;;;;6.90;3.30;;;;;;;10.85;73.38;100105.17;1756744;79;21030;-63
2022/09/20 03:48:28;;;;;;;7.70;3.67;;;;;;;10.89;73.29;100103.96;1748540;80;21082;-61
2022/09/20 03:51:13;;;;;;;8.05;3.87;;;;;;;10.88;73.31;100106.23;1749078;80;21097;-62
2022/09/20 03:54:27;;;;;;;8.90;4.05;;;;;;;10.82;73.61;100099.34;1750979;80;21135;-62
2022/09/20 03:57:30;;;;;;;7.55;3.83;;;;;;;10.81;73.93;100105.09;1746978;80;21066;-63
2022/09/20 04:00:14;;;;;;;6.42;3.70;;;;;;;10.82;73.90;100108.06;1754853;80;21110;-63
2022/09/20 04:03:20;;;;;;;9.58;4.10;;;;;;;10.91;73.70;100108.61;1747415;80;21054;-63
2022/09/20 04:06:11;;;;;;;6.85;4.45;;;;;;;10.99;73.62;100114.51;1741415;80;21646;-63
2022/09/20 04:09:01;;;;;;;12.47;4.87;;;;;;;11.03;73.37;100112.44;1745996;80;21127;-63
2022/09/20 04:11:39;;;;;;;7.87;4.83;;;;;;;11.04;73.41;100111.00;1752678;79;21065;-64
2022/09/20 04:14:22;;;;;;;10.78;4.55;;;;;;;11.04;73.48;100104.91;1747541;80;21108;-63
2022/09/20 04:16:58;;;;;;;8.15;4.10;;;;;;;11.07;73.40;100101.52;1755808;79;20985;-65
2022/09/20 04:19:40;;;;;;;6.70;3.92;;;;;;;11.19;73.12;100099.62;1753262;80;21122;-66
2022/09/20 04:22:07;;;;;;;8.25;4.85;;;;;;;11.26;72.89;100107.36;1761123;79;21045;-65
2022/09/20 04:25:04;;;;;;;8.23;4.47;;;;;;;11.29;72.79;100103.11;1756632;80;21058;-65
2022/09/20 04:27:42;;;;;;;11.00;4.50;;;;;;;11.31;72.90;100105.16;1752261;80;20964;-64
2022/09/20 04:30:26;;;;;;;8.00;4.50;;;;;;;11.29;72.79;100111.02;1750121;79;21070;-64
2022/09/20 04:33:08;;;;;;;6.72;4.50;;;;;;;11.27;72.53;100111.64;1753189;80;21138;-47
2022/09/20 04:36:27;;;;;;;6.62;4.12;;;;;;;11.30;72.17;100117.14;1749383;79;21383;-48
2022/09/20 04:39:14;;;;;;;9.48;4.97;;;;;;;11.30;72.19;100119.77;1762631;79;21042;-52
2022/09/20 04:41:58;;;;;;;6.87;4.20;;;;;;;11.30;72.39;100123.23;1675677;80;21086;-48
2022/09/20 04:45:15;;;;;;;9.00;4.40;;;;;;;11.31;72.38;100125.37;1753415;79;21493;-48
2022/09/20 04:48:24;;;;;;;7.35;3.90;;;;;;;11.32;72.28;100123.92;1752047;79;21057;-47
2022/09/20 04:51:21;;;;;;;8.28;4.00;;;;;;;11.43;72.46;100128.73;1746215;80;21239;-46
2022/09/20 04:54:09;;;;;;;6.65;3.85;;;;;;;11.48;72.28;100132.65;1751453;80;21063;-46
2022/09/20 04:56:53;;;;;;;6.97;4.20;;;;;;;11.48;72.38;100136.60;1757551;80;21055;-45
2022/09/20 04:59:33;;;;;;;7.53;3.92;;;;;;;11.47;72.48;100134.09;1753699;80;21110;-47
2022/09/20 05:02:30;;;;;;;8.13;3.95;;;;;;;11.46;72.55;100135.05;1748667;80;21723;-47
2022/09/20 05:05:14;;;;;;;7.58;4.00;;;;;;;11.47;72.65;100133.61;1761407;79;21235;-46
2022/09/20 05:08:08;;;;;;;6.83;3.72;;;;;;;11.59;72.94;100134.33;1747382;79;21071;-46
2022/09/20 05:11:01;;;;;;;7.35;4.37;;;;;;;11.80;73.28;100134.70;1745434;80;21589;-46
2022/09/20 05:13:57;;;;;;;9.10;4.35;;;;;;;11.99;73.58;100128.66;1748681;80;20991;-47
2022/09/20 05:16:49;;;;;;;9.67;3.90;;;;;;;12.11;73.09;100127.55;1740842;79;21056;-47
2022/09/20 05:19:54;;;;;;;7.30;4.20;;;;;;;12.15;72.84;100121.01;1760790;80;21198;-47
2022/09/20 05:22:39;;;;;;;7.12;4.00;;;;;;;12.17;72.82;100123.05;1757207;80;21038;-46
2022/09/20 05:25:55;;;;;;;8.18;4.30;;;;;;;12.22;72.45;100119.96;1742594;80;21097;-47
2022/09/20 05:28:52;;;;;;;7.40;4.60;;;;;;;12.27;72.23;100121.69;1747282;80;21076;-47
2022/09/20 05:31:27;;;;;;;15.68;5.00;;;;;;;12.30;72.24;100121.91;1749171;80;21694;-48
2022/09/20 05:34:05;;;;;;;8.75;4.70;;;;;;;12.28;72.22;100118.09;1748858;80;21953;-47
2022/09/20 05:36:58;;;;;;;11.38;4.97;;;;;;;12.29;72.45;100121.55;1731691;79;21546;-47
2022/09/20 05:39:47;;;;;;;7.45;4.12;;;;;;;12.31;72.38;100112.54;1752444;80;21070;-46
2022/09/20 05:42:22;;;;;;;7.25;4.80;;;;;;;12.44;71.90;100115.72;1752170;80;21018;-46
2022/09/20 05:45:24;;;;;;;8.10;5.00;;;;;;;12.53;71.62;100117.98;1759365;79;21157;-46
2022/09/20 05:48:15;;;;;;;7.67;5.37;;;;;;;12.53;71.65;100111.39;1752487;80;21075;-47
2022/09/20 05:50:59;;;;;;;8.23;5.12;;;;;;;12.48;71.09;100104.39;1759304;80;21046;-46
2022/09/20 05:53:49;;;;;;;8.98;5.37;;;;;;;12.38;70.79;100111.00;1742662;80;21443;-46
2022/09/20 05:56:24;;;;;;;8.88;4.53;;;;;;;12.37;70.89;100118.58;1750486;80;21002;-46
2022/09/20 05:59:11;;;;;;;7.83;4.90;;;;;;;12.42;70.77;100111.54;1743563;81;21548;-46
2022/09/20 06:02:03;;;;;;;8.78;5.60;;;;;;;12.41;70.58;100112.03;1754653;80;21114;-46
2022/09/20 06:04:38;;;;;;;8.18;5.22;;;;;;;12.41;70.74;100113.36;1713734;80;21172;-46
2022/09/20 06:07:19;;;;;;;8.43;5.45;;;;;;;12.36;70.65;100108.17;1753936;79;21114;-46
2022/09/20 06:10:19;;;;;;;8.63;5.05;;;;;;;12.35;70.86;100111.77;1725385;81;21121;-46
2022/09/20 06:13:23;;;;;;;9.83;5.30;;;;;;;12.36;70.87;100106.36;1691906;82;21097;-46
2022/09/20 06:15:59;;;;;;;7.87;5.03;;;;;;;12.43;70.14;100112.72;1664625;82;21432;-47
2022/09/20 06:18:37;;;;;;;9.38;4.70;;;;;;;12.41;69.57;100105.44;1699690;82;21143;-46
2022/09/20 06:21:29;;;;;;;12.33;5.22;;;;;;;12.38;69.51;100103.08;1662149;83;21095;-46
2022/09/20 06:23:58;;;;;;;8.75;5.05;;;;;;;12.35;69.68;100106.00;1665485;82;21067;-46
2022/09/20 06:26:28;;;;;;;9.50;5.20;;;;;;;12.37;69.77;100104.08;1683599;82;21089;-46
2022/09/20 06:29:01;;;;;;;8.60;5.05;;;;;;;12.43;69.75;100104.80;1692259;83;21089;-46
2022/09/20 06:31:28;;;;;;;8.88;5.62;;;;;;;12.44;69.76;100104.34;1681684;83;21091;-46
2022/09/20 06:34:09;;;;;;;9.28;5.25;;;;;;;12.42;69.67;100110.22;1692506;83;21247;-47
2022/09/20 06:42:46;;;;;;;10.35;5.40;;;;;;;12.43;69.43;100107.45;1690730;82;21280;-46
2022/09/20 06:45:13;;;;;;;9.88;5.12;;;;;;;12.43;69.24;100106.62;1698876;82;21543;-47
2022/09/20 06:47:40;;;;;;;10.08;5.25;;;;;;;12.40;69.16;100107.72;1688653;83;21015;-47
2022/09/20 06:50:14;;;;;;;7.62;4.65;;;;;;;12.38;69.24;100107.53;1689838;83;21003;-47
2022/09/20 06:52:41;;;;;;;7.75;4.85;;;;;;;12.40;69.23;100118.77;1698136;82;21010;-47
2022/09/20 06:55:17;;;;;;;8.53;4.78;;;;;;;12.49;69.23;100126.33;1698548;82;21095;-47
2022/09/20 06:57:43;;;;;;;9.10;4.92;;;;;;;12.58;69.53;100120.20;1693087;82;21739;-46
2022/09/20 07:00:14;;;;;;;8.33;4.70;;;;;;;12.69;69.32;100117.38;1695896;83;21055;-46
2022/09/20 07:02:42;;;;;;;7.87;4.60;;;;;;;12.78;69.19;100110.44;1691242;83;21094;-47
2022/09/20 07:05:16;;;;;;;8.18;4.83;;;;;;;12.86;68.83;100108.37;1683303;83;21140;-47
2022/09/20 07:07:43;;;;;;;9.88;4.85;;;;;;;12.91;68.46;100110.09;1682048;83;21055;-46
2022/09/20 07:10:12;;;;;;;7.87;4.67;;;;;;;13.01;67.84;100109.09;1693359;82;21736;-47
2022/09/20 07:12:38;;;;;;;10.93;5.12;;;;;;;13.03;68.00;100112.91;1692482;82;21581;-48
2022/09/20 07:15:07;;;;;;;7.25;4.47;;;;;;;13.06;68.04;100108.64;1690648;82;21082;-47
2022/09/20 07:17:33;;;;;;;8.03;5.03;;;;;;;13.10;67.56;100111.84;1697620;82;21074;-47
2022/09/20 07:20:01;;;;;;;9.35;5.17;;;;;;;13.13;68.06;100107.09;1689435;83;21130;-47
2022/09/20 07:22:28;;;;;;;7.30;4.22;;;;;;;13.23;68.02;100115.45;1691595;83;21153;-47
2022/09/20 07:24:54;;;;;;;7.33;3.95;;;;;;;13.37;67.71;100117.65;1708298;82;21150;-46
2022/09/20 07:27:21;;;;;;;7.00;4.30;;;;;;;13.46;67.08;100119.89;1693403;83;21071;-47
2022/09/20 07:29:47;;;;;;;8.30;4.58;;;;;;;13.50;67.28;100116.81;1690650;83;22212;-47
2022/09/20 07:32:14;;;;;;;7.35;4.20;;;;;;;13.58;67.28;100116.55;1682627;84;21163;-47
2022/09/20 07:34:40;;;;;;;9.63;4.22;;;;;;;13.61;66.89;100108.33;1682926;83;21025;-47
2022/09/20 07:37:07;;;;;;;8.20;3.75;;;;;;;13.61;66.36;100109.15;1695403;82;21089;-46
2022/09/20 07:39:34;;;;;;;8.20;3.35;;;;;;;13.61;66.58;100110.97;1693661;83;21604;-47
2022/09/20 07:42:05;;;;;;;8.83;3.80;;;;;;;13.64;66.38;100109.36;1692080;83;21118;-47
2022/09/20 07:44:29;;;;;;;7.80;3.90;;;;;;;13.68;66.69;100113.35;1694105;82;21911;-47
2022/09/20 07:46:58;;;;;;;8.73;3.72;;;;;;;13.69;66.57;100117.67;1686052;82;21553;-47
2022/09/20 07:49:26;;;;;;;7.92;4.00;;;;;;;13.70;66.47;100120.64;1688518;83;21102;-47
2022/09/20 07:51:53;;;;;;;8.05;3.90;;;;;;;13.72;66.86;100122.16;1687832;83;21514;-46
2022/09/20 07:54:19;;;;;;;7.92;3.90;;;;;;;13.72;66.89;100120.84;1693050;83;21423;-47
2022/09/20 07:56:46;;;;;;;6.97;3.70;;;;;;;13.77;66.63;100123.05;1688616;83;21244;-47
2022/09/20 07:59:13;;;;;;;6.70;3.42;;;;;;;13.85;66.59;100125.77;1686855;83;21114;-47
2022/09/20 08:01:41;;;;;;;10.05;3.90;;;;;;;13.92;66.49;100123.36;1726477;81;21004;-47
2022/09/20 08:04:08;;;;;;;7.00;3.83;;;;;;;13.96;66.50;100127.85;1755276;79;21185;-47
2022/09/20 08:06:44;;;;;;;7.08;4.30;;;;;;;13.97;66.47;100126.84;1750070;80;21495;-46
2022/09/20 08:09:11;;;;;;;7.00;4.00;;;;;;;13.97;66.12;100123.73;1748597;80;21140;-46
2022/09/20 08:11:41;;;;;;;10.32;4.00;;;;;;;13.93;66.10;100129.79;1757796;79;20947;-47
2022/09/20 08:14:14;;;;;;;8.00;4.42;;;;;;;13.93;66.31;100123.68;1755848;79;21671;-50
2022/09/20 08:16:46;;;;;;;8.23;4.00;;;;;;;13.97;66.14;100121.09;1738427;80;21160;-51
2022/09/20 08:19:19;;;;;;;7.08;4.08;;;;;;;14.02;66.31;100120.14;1758787;80;21069;-47
2022/09/20 08:21:46;;;;;;;7.25;4.37;;;;;;;14.05;67.07;100125.60;1742652;80;21780;-47
2022/09/20 08:24:12;;;;;;;6.67;4.17;;;;;;;14.07;67.20;100120.98;1746913;80;21042;-48
2022/09/20 08:26:39;;;;;;;7.67;4.15;;;;;;;14.08;67.27;100120.84;1765745;79;20996;-47
2022/09/20 08:29:06;;;;;;;7.60;4.15;;;;;;;14.12;67.32;100118.71;1752682;80;21205;-47
2022/09/20 08:31:36;;;;;;;9.45;4.30;;;;;;;14.19;67.59;100113.64;1762755;79;21493;-49
2022/09/20 08:34:05;;;;;;;7.65;3.85;;;;;;;14.36;67.32;100114.63;1745686;80;21121;-48
2022/09/20 08:36:32;;;;;;;8.98;4.90;;;;;;;14.45;66.89;100118.98;1754879;79;21521;-63
2022/09/20 08:38:59;;;;;;;8.18;4.78;;;;;;;14.50;67.01;100115.37;1755649;80;21089;-59
2022/09/20 08:41:39;;;;;;;7.90;4.58;;;;;;;14.55;67.01;100114.42;1762727;79;21055;-58
2022/09/20 08:44:13;;;;;;;9.55;4.20;;;;;;;14.51;66.95;100113.08;1760614;79;21457;-48
2022/09/20 08:46:44;;;;;;;8.77;4.47;;;;;;;14.47;66.73;100107.74;1752930;80;21114;-48
2022/09/20 08:49:16;;;;;;;6.58;3.87;;;;;;;14.46;66.51;100108.75;1758682;80;21050;-48
2022/09/20 08:51:42;;;;;;;5.83;3.33;;;;;;;14.42;66.62;100108.70;1754063;79;21118;-46
2022/09/20 08:54:11;;;;;;;5.50;3.00;;;;;;;14.40;66.41;100113.33;1750658;80;21050;-46
2022/09/20 08:56:37;;;;;;;6.90;3.85;;;;;;;14.35;66.44;100107.66;1741236;80;21063;-48
2022/09/20 08:59:06;;;;;;;7.33;3.20;;;;;;;14.26;66.79;100106.27;1756219;80;21116;-45
2022/09/20 09:01:33;;;;;;;7.53;3.10;;;;;;;14.18;66.80;100112.82;1702555;80;21138;-45
2022/09/20 09:04:18;;;;;;;7.55;2.92;;;;;;;14.13;67.39;100112.45;1749368;79;21603;-45
2022/09/20 09:06:45;;;;;;;6.42;2.92;;;;;;;14.11;67.19;100110.45;1740077;80;21528;-46
2022/09/20 09:09:23;;;;;;;6.72;3.22;;;;;;;14.05;66.97;100111.05;1748800;79;21533;-45
2022/09/20 09:11:53;;;;;;;6.10;3.02;;;;;;;13.97;67.35;100117.59;1747185;80;21739;-47
2022/09/20 09:14:47;;;;;;;7.42;3.00;;;;;;;13.91;68.18;100108.45;1737363;81;21086;-45
2022/09/20 09:17:17;;;;;;;5.62;3.20;;;;;;;13.93;68.65;100112.59;1698579;82;21076;-47
2022/09/20 09:20:00;;;;;;;5.67;2.83;;;;;;;14.01;68.47;100106.56;1692286;83;21097;-46
2022/09/20 09:22:38;;;;;;;5.67;3.05;;;;;;;14.01;68.32;100107.88;1662215;83;21131;-46
2022/09/20 09:25:37;;;;;;;6.12;3.42;;;;;;;13.96;68.83;100105.37;1691485;83;21164;-47
2022/09/20 09:28:09;;;;;;;5.97;3.45;;;;;;;13.92;69.23;100110.13;1697221;82;21123;-46
2022/09/20 09:30:41;;;;;;;10.98;3.67;;;;;;;13.87;69.50;100100.47;1699227;82;21047;-46
2022/09/20 09:33:22;;;;;;;7.85;3.70;;;;;;;13.86;69.19;100100.97;1685354;83;21086;-47
2022/09/20 09:36:15;;;;;;;9.23;4.05;;;;;;;13.88;69.05;100105.61;1694672;82;21118;-47
2022/09/20 09:38:44;;;;;;;6.80;3.60;;;;;;;13.97;69.00;100101.72;1692238;83;21327;-46
2022/09/20 09:41:25;;;;;;;6.28;3.17;;;;;;;14.00;69.13;100102.24;1695396;83;21063;-46
2022/09/20 09:43:59;;;;;;;9.48;3.67;;;;;;;14.01;69.13;100108.39;1691929;82;21059;-46
2022/09/20 09:46:27;;;;;;;5.83;3.08;;;;;;;13.96;69.26;100105.37;1691030;83;21188;-47
2022/09/20 09:49:17;;;;;;;6.33;2.90;;;;;;;13.94;69.51;100102.88;1682104;84;21071;-47
2022/09/20 09:52:02;;;;;;;6.67;2.83;;;;;;;13.97;69.36;100101.72;1686570;82;21986;-46
2022/09/20 09:54:36;;;;;;;7.28;3.15;;;;;;;13.99;69.75;100103.75;1721857;81;21082;-48
2022/09/20 09:57:22;;;;;;;5.47;2.72;;;;;;;14.00;69.54;100094.81;1695364;81;21684;-47
2022/09/20 10:00:11;;;;;;;6.08;3.55;;;;;;;13.98;69.28;100092.31;1698062;83;21074;-47
2022/09/20 10:02:59;;;;;;;5.62;2.27;;;;;;;13.94;69.13;100087.83;1722077;82;21032;-47
2022/09/20 10:06:03;;;;;;;4.72;2.17;;;;;;;13.93;68.78;100082.68;1727036;82;21121;-47
2022/09/20 10:08:56;;;;;;;6.40;2.55;;;;;;;13.95;68.33;100088.64;1701094;82;21073;-47
2022/09/20 10:11:36;;;;;;;4.75;2.50;;;;;;;13.87;68.72;100079.31;1697456;83;21739;-47
2022/09/20 10:14:30;;;;;;;4.70;1.85;;;;;;;13.82;69.69;100082.44;1690778;83;21082;-47
2022/09/20 10:17:33;;;;;;;4.00;1.70;;;;;;;13.82;69.67;100081.11;1688658;82;21131;-47
2022/09/20 10:20:27;;;;;;;4.12;2.00;;;;;;;13.87;69.50;100074.02;1720876;82;21102;-47
2022/09/20 10:23:07;;;;;;;3.92;1.67;;;;;;;13.87;68.95;100073.55;1710463;82;21652;-47
2022/09/20 10:26:05;;;;;;;4.47;2.02;;;;;;;13.81;68.43;100072.83;1759350;79;22260;-46
2022/09/20 10:29:08;;;;;;;5.35;2.08;;;;;;;13.76;68.87;100069.80;1757273;80;21572;-47
2022/09/20 10:32:25;;;;;;;7.67;2.98;;;;;;;13.66;69.52;100070.38;1682340;83;21093;-47
2022/09/20 10:35:15;;;;;;;5.85;2.65;;;;;;;13.64;69.83;100061.77;1682629;83;21147;-46
2022/09/20 10:38:09;;;;;;;4.80;2.42;;;;;;;13.64;69.71;100061.27;1694786;82;21073;-46
2022/09/20 10:44:17;;;;;;;4.95;2.20;;;;;;;13.46;69.78;100045.39;1684524;83;21179;-46
2022/09/20 10:47:09;;;;;;;6.00;1.62;;;;;;;13.46;70.00;100037.45;1688427;83;21558;-46
2022/09/20 10:49:59;;;;;;;4.20;1.90;;;;;;;13.50;69.83;100041.48;1690362;82;21117;-47
2022/09/20 10:52:59;;;;;;;4.25;1.92;;;;;;;13.55;69.69;100041.03;1677254;83;21277;-47
2022/09/20 10:55:52;;;;;;;4.70;1.57;;;;;;;13.52;69.79;100046.62;1720326;82;21090;-46
2022/09/20 10:58:58;;;;;;;5.67;2.00;;;;;;;13.48;70.16;100038.62;1692339;83;22878;-47
2022/09/20 11:02:02;;;;;;;4.40;1.85;;;;;;;13.50;70.30;100038.84;1695506;83;21067;-46
2022/09/20 11:05:03;;;;;;;4.45;2.08;;;;;;;13.51;69.96;100039.16;1687433;83;21133;-47
2022/09/20 11:08:04;;;;;;;5.53;2.10;;;;;;;13.47;70.19;100046.23;1689467;83;21565;-46
2022/09/20 11:10:48;;;;;;;5.58;2.40;;;;;;;13.41;70.62;100041.04;1690724;83;21067;-46
2022/09/20 11:13:38;;;;;;;4.72;2.20;;;;;;;13.41;70.61;100042.86;1688877;83;21110;-47
2022/09/20 11:16:25;;;;;;;5.58;2.47;;;;;;;13.44;70.47;100042.06;1693562;83;21589;-46
2022/09/20 11:19:10;;;;;;;4.40;2.10;;;;;;;13.41;70.37;100045.00;1687225;83;21138;-47
2022/09/20 11:21:41;;;;;;;5.72;2.62;;;;;;;13.33;70.73;100037.84;1690457;83;21613;-46
2022/09/20 11:24:21;;;;;;;5.62;2.47;;;;;;;13.31;71.24;100038.92;1692667;83;21074;-46
2022/09/20 11:26:56;;;;;;;5.62;2.58;;;;;;;13.33;71.29;100040.95;1693269;83;21075;-46
2022/09/20 11:29:46;;;;;;;7.00;2.70;;;;;;;13.39;71.30;100033.76;1693045;82;21068;-46
2022/09/20 11:32:33;;;;;;;4.85;2.47;;;;;;;13.44;71.44;100035.46;1669849;83;21137;-46
2022/09/20 11:35:29;;;;;;;5.72;2.58;;;;;;;13.46;71.78;100036.63;1645612;83;21056;-46
2022/09/20 11:38:13;;;;;;;6.77;2.53;;;;;;;13.48;71.96;100038.16;1690877;83;22031;-47
2022/09/20 11:40:48;;;;;;;4.95;2.67;;;;;;;13.51;71.86;100036.52;1637693;83;21521;-47
2022/09/20 11:43:15;;;;;;;5.78;2.80;;;;;;;13.59;71.80;100027.02;1695807;83;21189;-46
2022/09/20 11:45:41;;;;;;;5.78;3.02;;;;;;;13.64;71.97;100032.69;1680053;84;21076;-46
2022/09/20 11:48:28;;;;;;;6.33;2.75;;;;;;;13.62;71.99;100030.19;1694238;82;21000;-46
2022/09/20 11:51:31;;;;;;;5.35;2.30;;;;;;;13.64;72.14;100022.11;1702594;82;21147;-46
2022/09/20 11:54:27;;;;;;;5.10;2.65;;;;;;;13.67;72.16;100012.56;1756234;80;21110;-47
2022/09/20 11:56:55;;;;;;;5.53;2.80;;;;;;;13.70;71.89;100014.41;1754165;79;21061;-47
2022/09/20 11:59:35;;;;;;;6.83;3.12;;;;;;;13.75;71.60;100020.06;1753247;80;21213;-47
2022/09/20 12:02:06;;;;;;;7.25;3.08;;;;;;;13.75;71.44;100014.77;1755233;80;21109;-46
2022/09/20 12:04:34;;;;;;;5.62;3.05;;;;;;;13.73;71.69;100012.78;1764800;79;21154;-47
2022/09/20 12:07:16;;;;;;;7.15;2.83;;;;;;;13.68;71.67;100011.56;1757536;80;21063;-47
2022/09/20 12:09:51;;;;;;;6.78;2.85;;;;;;;13.63;71.85;100013.33;1757139;80;21605;-46
2022/09/20 12:12:44;;;;;;;5.00;2.40;;;;;;;13.66;71.85;100024.11;1752407;80;21231;-46
2022/09/20 12:15:32;;;;;;;4.75;2.95;;;;;;;13.68;71.61;100010.23;1771320;80;21096;-46
2022/09/20 12:18:14;;;;;;;5.60;3.12;;;;;;;13.67;71.78;100008.59;1743396;80;21105;-47
2022/09/20 12:20:46;;;;;;;6.03;3.37;;;;;;;13.64;72.13;100011.03;1759268;80;21171;-46
2022/09/20 12:23:41;;;;;;;5.85;3.55;;;;;;;13.58;72.27;100008.17;1769406;79;21074;-48
2022/09/20 12:26:38;;;;;;;6.65;3.42;;;;;;;13.55;72.40;100006.67;1749498;79;21090;-46
2022/09/20 12:29:30;;;;;;;7.05;4.22;;;;;;;13.58;72.56;100002.87;1753323;80;21009;-47
2022/09/20 12:32:01;;;;;;;6.00;4.25;;;;;;;13.55;72.68;99998.24;1744075;79;21091;-47
2022/09/20 12:34:34;;;;;;;6.47;4.20;;;;;;;13.52;72.95;99999.86;1749292;79;22147;-47
2022/09/20 12:37:09;;;;;;;6.35;4.20;;;;;;;13.45;72.98;99994.84;1742308;80;21557;-46
2022/09/20 12:39:39;;;;;;;6.08;4.17;;;;;;;13.44;73.13;99993.17;1752082;79;21207;-47
2022/09/20 12:42:14;;;;;;;10.28;4.58;;;;;;;13.49;73.21;99986.13;1749859;80;21074;-46
2022/09/20 12:44:52;;;;;;;10.20;5.50;;;;;;;13.51;73.16;99986.80;1760514;79;21069;-46
2022/09/20 12:47:28;;;;;;;6.30;4.25;;;;;;;13.51;73.38;99982.33;1745907;80;21593;-47
2022/09/20 12:52:56;;;;;;;6.90;4.40;;;;;;;13.54;73.39;99985.99;1758160;80;21223;-46
2022/09/20 12:55:42;;;;;;;6.20;4.30;;;;;;;13.63;73.20;99970.20;1746949;80;21129;-47
2022/09/20 12:58:15;;;;;;;7.78;4.90;;;;;;;13.67;72.82;99971.08;1744590;80;21089;-47